Time;durP1;ratioP1;P1;durP2;ratioP2;P2;SDS_P1;SDS_P2;PMS_P1;PMS_P2;Temp;Humidity;BMP_temperature;BMP_pressure;BME280_temperature;BME280_humidity;BME280_pressure;Samples;Min_cycle;Max_cycle;Signal;HPM_P1;HPM_P2
2022/06/17 00:02:25;;;;;;;6.68;2.90;;;;;;;;;;6325076;28;20048;-78
2022/06/17 00:05:26;;;;;;;6.95;3.40;;;;;;;;;;6324108;28;20055;-78
2022/06/17 00:08:31;;;;;;;6.88;2.83;;;;;;;;;;6324117;28;20063;-78
2022/06/17 00:11:36;;;;;;;10.95;2.92;;;;;;;;;;6323671;28;20339;-77
2022/06/17 00:17:54;;;;;;;4.15;2.22;;;;;;;;;;6319605;28;20112;-78
2022/06/17 00:20:55;;;;;;;6.35;2.80;;;;;;;;;;6325790;28;20101;-79
2022/06/17 00:23:58;;;;;;;4.35;2.85;;;;;;;;;;6326148;28;20297;-79
2022/06/17 00:27:01;;;;;;;4.43;2.65;;;;;;;;;;6321461;28;20638;-78
2022/06/17 00:30:06;;;;;;;7.60;3.30;;;;;;;;;;6322549;28;20051;-78
2022/06/17 00:33:08;;;;;;;8.00;3.58;;;;;;;;;;6323896;28;20079;-78
2022/06/17 00:36:13;;;;;;;9.35;3.25;;;;;;;;;;6324499;28;20062;-77
2022/06/17 00:39:17;;;;;;;5.97;3.17;;;;;;;;;;6323544;28;20212;-77
2022/06/17 00:42:21;;;;;;;5.15;3.20;;;;;;;;;;6321746;28;20044;-77
2022/06/17 00:45:27;;;;;;;5.68;3.25;;;;;;;;;;6320050;28;20502;-78
2022/06/17 00:48:30;;;;;;;6.22;3.15;;;;;;;;;;6324207;28;20102;-77
2022/06/17 00:51:36;;;;;;;14.20;3.75;;;;;;;;;;6320358;28;20066;-77
2022/06/17 00:54:41;;;;;;;6.20;3.28;;;;;;;;;;6321512;28;20062;-78
2022/06/17 00:57:44;;;;;;;6.07;3.22;;;;;;;;;;6324674;28;20242;-77
2022/06/17 01:00:47;;;;;;;4.70;3.33;;;;;;;;;;6326943;28;20040;-77
2022/06/17 01:03:50;;;;;;;7.60;2.97;;;;;;;;;;6330985;28;20040;-77
2022/06/17 01:06:54;;;;;;;6.65;3.40;;;;;;;;;;6328680;28;20062;-76
2022/06/17 01:09:57;;;;;;;9.38;3.30;;;;;;;;;;6323755;28;20056;-77
2022/06/17 01:13:02;;;;;;;;;;;;;;;;;;6326512;28;20193;-79
2022/06/17 01:16:05;;;;;;;9.13;4.63;;;;;;;;;;6325400;28;19993;-78
2022/06/17 01:19:14;;;;;;;8.93;5.60;;;;;;;;;;6324181;28;20709;-79
2022/06/17 01:22:22;;;;;;;11.13;7.90;;;;;;;;;;6323457;28;20053;-79
2022/06/17 01:25:28;;;;;;;11.80;7.28;;;;;;;;;;6324423;28;20074;-77
2022/06/17 01:28:29;;;;;;;12.98;7.70;;;;;;;;;;6324707;28;20056;-79
2022/06/17 01:31:31;;;;;;;15.75;7.30;;;;;;;;;;6322618;28;20067;-79
2022/06/17 01:34:33;;;;;;;11.82;7.57;;;;;;;;;;6325551;28;20058;-78
2022/06/17 01:37:35;;;;;;;12.88;7.38;;;;;;;;;;6326870;28;20056;-79
2022/06/17 01:40:38;;;;;;;14.18;7.93;;;;;;;;;;6325960;28;20051;-78
2022/06/17 01:43:40;;;;;;;;;;;;;;;;;;6322983;28;20044;-79
2022/06/17 01:46:44;;;;;;;12.75;9.85;;;;;;;;;;6325497;28;19924;-80
2022/06/17 01:49:48;;;;;;;13.68;9.88;;;;;;;;;;6326330;28;20078;-80
2022/06/17 01:52:57;;;;;;;17.67;10.55;;;;;;;;;;6324371;28;20118;-78
2022/06/17 01:56:07;;;;;;;17.25;9.43;;;;;;;;;;6325845;28;20104;-79
2022/06/17 01:59:12;;;;;;;15.82;11.13;;;;;;;;;;6321135;28;20040;-80
2022/06/17 02:02:13;;;;;;;11.15;9.95;;;;;;;;;;6324745;28;20044;-78
2022/06/17 02:05:15;;;;;;;14.45;10.00;;;;;;;;;;6325292;28;20051;-78
2022/06/17 02:08:17;;;;;;;11.88;10.27;;;;;;;;;;6320349;28;20334;-76
2022/06/17 02:11:20;;;;;;;11.73;9.73;;;;;;;;;;6325457;28;20052;-76
2022/06/17 02:14:22;;;;;;;16.08;9.90;;;;;;;;;;6316772;28;20098;-79
2022/06/17 02:17:26;;;;;;;11.50;9.32;;;;;;;;;;6319183;28;20235;-78
2022/06/17 02:20:28;;;;;;;13.40;9.70;;;;;;;;;;6320953;28;20056;-78
2022/06/17 02:23:30;;;;;;;14.80;11.70;;;;;;;;;;6322653;28;20050;-79
2022/06/17 02:26:35;;;;;;;12.50;9.67;;;;;;;;;;6319828;28;20056;-79
2022/06/17 02:29:38;;;;;;;14.85;9.98;;;;;;;;;;6323183;28;20040;-79
2022/06/17 02:32:40;;;;;;;15.23;9.55;;;;;;;;;;6317157;28;20045;-78
2022/06/17 02:35:47;;;;;;;10.43;9.38;;;;;;;;;;6321187;28;20059;-76
2022/06/17 02:38:49;;;;;;;11.15;9.27;;;;;;;;;;6319486;28;20048;-78
2022/06/17 02:41:52;;;;;;;14.15;11.93;;;;;;;;;;6321253;28;20051;-78
2022/06/17 02:44:54;;;;;;;;;;;;;;;;;;6318091;28;20052;-78
2022/06/17 02:47:56;;;;;;;13.30;10.70;;;;;;;;;;6325041;28;19920;-78
2022/06/17 02:50:59;;;;;;;15.50;11.23;;;;;;;;;;6325191;28;20048;-78
2022/06/17 02:54:03;;;;;;;13.25;11.65;;;;;;;;;;6318690;28;21380;-76
2022/06/17 02:57:08;;;;;;;13.85;11.82;;;;;;;;;;6321654;28;20044;-79
2022/06/17 03:00:14;;;;;;;17.90;11.07;;;;;;;;;;6321164;28;20060;-78
2022/06/17 03:03:17;;;;;;;15.65;13.18;;;;;;;;;;6318134;28;20040;-77
2022/06/17 03:06:21;;;;;;;18.58;13.63;;;;;;;;;;6323634;28;20044;-77
2022/06/17 03:09:26;;;;;;;13.60;12.15;;;;;;;;;;6320401;28;20048;-77
2022/06/17 03:12:30;;;;;;;15.93;12.30;;;;;;;;;;6321257;28;20339;-77
2022/06/17 03:15:32;;;;;;;13.68;11.25;;;;;;;;;;6319552;28;20118;-77
2022/06/17 03:18:34;;;;;;;12.52;11.27;;;;;;;;;;6316679;28;20052;-78
2022/06/17 03:21:36;;;;;;;13.43;10.90;;;;;;;;;;6317661;28;20074;-78
2022/06/17 03:24:44;;;;;;;13.18;10.98;;;;;;;;;;6323185;28;20044;-78
2022/06/17 03:27:50;;;;;;;15.52;12.32;;;;;;;;;;6322705;28;20055;-77
2022/06/17 03:30:57;;;;;;;12.85;11.35;;;;;;;;;;6326159;28;20052;-77
2022/06/17 03:34:03;;;;;;;15.45;12.43;;;;;;;;;;6326024;28;20052;-78
2022/06/17 03:37:08;;;;;;;19.60;13.45;;;;;;;;;;6319700;28;20097;-77
2022/06/17 03:40:19;;;;;;;18.65;14.13;;;;;;;;;;6318953;28;20086;-79
2022/06/17 03:43:25;;;;;;;18.05;14.35;;;;;;;;;;6324700;28;20097;-77
2022/06/17 03:46:29;;;;;;;16.10;13.57;;;;;;;;;;6325251;28;20060;-77
2022/06/17 03:49:36;;;;;;;17.20;15.13;;;;;;;;;;6326990;28;20047;-78
2022/06/17 03:52:42;;;;;;;17.65;13.10;;;;;;;;;;6327091;28;20048;-76
2022/06/17 03:55:43;;;;;;;14.48;12.07;;;;;;;;;;6326696;28;20040;-78
2022/06/17 03:58:48;;;;;;;15.25;13.20;;;;;;;;;;6327329;28;20094;-78
2022/06/17 04:01:54;;;;;;;14.82;12.32;;;;;;;;;;6322014;28;20057;-77
2022/06/17 04:04:56;;;;;;;16.00;11.98;;;;;;;;;;6322454;28;20452;-78
2022/06/17 04:07:57;;;;;;;17.83;10.50;;;;;;;;;;6324945;28;20311;-79
2022/06/17 04:10:59;;;;;;;14.55;11.82;;;;;;;;;;6323823;28;20059;-78
2022/06/17 04:14:05;;;;;;;21.10;12.13;;;;;;;;;;6324164;28;20101;-78
2022/06/17 04:17:11;;;;;;;17.88;11.18;;;;;;;;;;6323762;28;20107;-78
2022/06/17 04:20:33;;;;;;;16.90;11.25;;;;;;;;;;6322686;28;20052;-79
2022/06/17 04:23:36;;;;;;;18.70;11.82;;;;;;;;;;6325011;28;20249;-79
2022/06/17 04:26:38;;;;;;;14.88;11.95;;;;;;;;;;6321615;28;20063;-78
2022/06/17 04:29:45;;;;;;;17.88;12.43;;;;;;;;;;6321647;28;20126;-76
2022/06/17 04:32:48;;;;;;;17.80;13.23;;;;;;;;;;6324072;28;20052;-79
2022/06/17 04:35:52;;;;;;;15.30;11.88;;;;;;;;;;6323305;28;20093;-76
2022/06/17 04:38:57;;;;;;;14.45;12.65;;;;;;;;;;6323695;28;20044;-76
2022/06/17 04:42:02;;;;;;;14.80;11.55;;;;;;;;;;6318898;28;20051;-77
2022/06/17 04:45:06;;;;;;;17.98;11.75;;;;;;;;;;6325368;28;20048;-78
2022/06/17 04:48:08;;;;;;;17.52;12.77;;;;;;;;;;6324445;28;20079;-78
2022/06/17 04:51:10;;;;;;;13.82;11.02;;;;;;;;;;6326113;28;20048;-77
2022/06/17 04:54:12;;;;;;;15.25;13.65;;;;;;;;;;6326670;28;20047;-78
2022/06/17 04:57:14;;;;;;;15.50;12.15;;;;;;;;;;6326129;28;20036;-78
2022/06/17 05:00:20;;;;;;;14.55;11.88;;;;;;;;;;6321862;28;20051;-78
2022/06/17 05:03:26;;;;;;;17.75;12.80;;;;;;;;;;6320075;28;20066;-79
2022/06/17 05:06:28;;;;;;;18.77;15.38;;;;;;;;;;6320543;28;20109;-79
2022/06/17 05:09:33;;;;;;;19.60;14.00;;;;;;;;;;6324012;28;20048;-81
2022/06/17 05:12:37;;;;;;;15.23;13.63;;;;;;;;;;6323468;28;20052;-79
2022/06/17 05:15:40;;;;;;;19.13;14.05;;;;;;;;;;6324759;28;20047;-79
2022/06/17 05:18:41;;;;;;;;;;;;;;;;;;6326540;28;20098;-79
2022/06/17 05:21:43;;;;;;;15.80;13.90;;;;;;;;;;6324577;28;19947;-78
2022/06/17 05:24:45;;;;;;;14.88;13.35;;;;;;;;;;6325291;28;20067;-78
2022/06/17 05:27:46;;;;;;;16.75;13.70;;;;;;;;;;6325566;28;20048;-78
2022/06/17 05:30:52;;;;;;;15.32;13.70;;;;;;;;;;6323713;28;20270;-78
2022/06/17 05:33:54;;;;;;;20.90;14.68;;;;;;;;;;6320871;28;20075;-78
2022/06/17 05:36:56;;;;;;;22.77;15.57;;;;;;;;;;6323008;28;20048;-78
2022/06/17 05:39:58;;;;;;;17.60;14.38;;;;;;;;;;6325414;28;20059;-78
2022/06/17 05:43:00;;;;;;;19.67;14.10;;;;;;;;;;6327710;28;20216;-78
2022/06/17 05:46:03;;;;;;;20.88;14.63;;;;;;;;;;6327638;28;20117;-78
2022/06/17 05:49:05;;;;;;;16.77;14.38;;;;;;;;;;6328662;28;20044;-78
2022/06/17 05:52:07;;;;;;;21.50;14.88;;;;;;;;;;6330252;28;20052;-78
2022/06/17 05:55:10;;;;;;;20.55;17.10;;;;;;;;;;6331457;28;20059;-79
2022/06/17 05:58:12;;;;;;;19.58;14.68;;;;;;;;;;6328957;28;20056;-79
2022/06/17 06:01:15;;;;;;;21.08;15.05;;;;;;;;;;6329697;28;20064;-78
2022/06/17 06:04:16;;;;;;;;;;;;;;;;;;6328498;28;20070;-78
2022/06/17 06:07:18;;;;;;;16.85;13.73;;;;;;;;;;6330910;28;19924;-79
2022/06/17 06:10:20;;;;;;;16.55;14.85;;;;;;;;;;6326536;28;20086;-78
2022/06/17 06:13:23;;;;;;;19.58;16.65;;;;;;;;;;6331029;28;20054;-77
2022/06/17 06:16:26;;;;;;;19.40;17.38;;;;;;;;;;6326001;28;20118;-78
2022/06/17 06:19:31;;;;;;;17.67;14.40;;;;;;;;;;6327459;28;20068;-78
2022/06/17 06:22:32;;;;;;;18.20;14.23;;;;;;;;;;6328388;28;20045;-78
2022/06/17 06:25:34;;;;;;;15.82;14.00;;;;;;;;;;6328572;28;20064;-78
2022/06/17 06:28:36;;;;;;;17.23;14.55;;;;;;;;;;6326290;28;20200;-77
2022/06/17 06:31:40;;;;;;;19.85;16.00;;;;;;;;;;6324654;28;20097;-78
2022/06/17 06:34:42;;;;;;;19.83;16.40;;;;;;;;;;6322551;28;20052;-78
2022/06/17 06:37:43;;;;;;;22.73;15.73;;;;;;;;;;6326869;28;20105;-78
2022/06/17 06:40:45;;;;;;;16.35;14.50;;;;;;;;;;6326716;28;20235;-78
2022/06/17 06:43:47;;;;;;;17.50;15.13;;;;;;;;;;6327771;28;20354;-78
2022/06/17 06:46:50;;;;;;;19.15;15.02;;;;;;;;;;6325979;28;20341;-78
2022/06/17 06:49:52;;;;;;;;;;;;;;;;;;6327158;28;20098;-77
2022/06/17 06:52:53;;;;;;;16.50;14.80;;;;;;;;;;6324857;28;19934;-77
2022/06/17 06:55:55;;;;;;;16.85;15.15;;;;;;;;;;6329190;28;20051;-77
2022/06/17 06:58:57;;;;;;;19.15;14.50;;;;;;;;;;6328540;28;20040;-78
2022/06/17 07:02:00;;;;;;;21.77;11.95;;;;;;;;;;6328319;28;20089;-77
2022/06/17 07:05:01;;;;;;;;;;;;;;;;;;6325624;28;20094;-78
2022/06/17 07:08:03;;;;;;;12.82;10.73;;;;;;;;;;6327167;28;20305;-80
2022/06/17 07:11:07;;;;;;;17.63;12.38;;;;;;;;;;6324202;28;20227;-77
2022/06/17 07:14:08;;;;;;;12.88;8.60;;;;;;;;;;6326199;28;20070;-80
2022/06/17 07:17:12;;;;;;;11.82;9.10;;;;;;;;;;6324246;28;20059;-79
2022/06/17 07:20:14;;;;;;;13.18;10.00;;;;;;;;;;6324005;28;20052;-80
2022/06/17 07:23:17;;;;;;;11.63;9.65;;;;;;;;;;6324674;28;20064;-79
2022/06/17 07:26:22;;;;;;;13.35;8.73;;;;;;;;;;6320279;28;20071;-78
2022/06/17 07:29:24;;;;;;;11.77;9.10;;;;;;;;;;6320811;28;20044;-78
2022/06/17 07:32:27;;;;;;;12.35;8.48;;;;;;;;;;6324698;28;20094;-78
2022/06/17 07:35:31;;;;;;;8.93;8.05;;;;;;;;;;6326007;28;20052;-80
2022/06/17 07:41:54;;;;;;;13.73;8.32;;;;;;;;;;6323226;28;20052;-79
2022/06/17 07:44:56;;;;;;;10.55;9.40;;;;;;;;;;6324096;28;20050;-79
2022/06/17 07:47:59;;;;;;;11.10;9.13;;;;;;;;;;6322472;28;20089;-79
2022/06/17 07:51:01;;;;;;;28.10;12.57;;;;;;;;;;6324933;28;20102;-76
2022/06/17 07:54:03;;;;;;;12.48;9.02;;;;;;;;;;6325130;28;20052;-76
2022/06/17 07:57:06;;;;;;;12.25;9.70;;;;;;;;;;6324746;28;20051;-77
2022/06/17 08:00:10;;;;;;;13.95;10.48;;;;;;;;;;6320131;28;20062;-79
2022/06/17 08:03:14;;;;;;;15.68;8.93;;;;;;;;;;6323577;28;20036;-80
2022/06/17 08:06:16;;;;;;;15.40;10.40;;;;;;;;;;6323226;28;20066;-78
2022/06/17 08:09:18;;;;;;;15.50;9.23;;;;;;;;;;6326848;28;20101;-79
2022/06/17 08:12:20;;;;;;;14.10;9.43;;;;;;;;;;6319812;28;20946;-84
2022/06/17 08:15:22;;;;;;;12.18;10.13;;;;;;;;;;6318652;28;20507;-78
2022/06/17 08:18:26;;;;;;;15.07;10.63;;;;;;;;;;6323301;28;20105;-79
2022/06/17 08:21:28;;;;;;;12.88;8.02;;;;;;;;;;6325233;28;20071;-80
2022/06/17 08:24:29;;;;;;;10.85;8.82;;;;;;;;;;6325502;28;20044;-80
2022/06/17 08:27:31;;;;;;;14.50;10.85;;;;;;;;;;6319272;28;20066;-80
2022/06/17 08:30:35;;;;;;;13.38;10.80;;;;;;;;;;6326199;28;20059;-80
2022/06/17 08:33:38;;;;;;;11.25;8.32;;;;;;;;;;6324746;28;20327;-80
2022/06/17 08:36:40;;;;;;;12.27;8.82;;;;;;;;;;6324399;28;20327;-79
2022/06/17 08:39:42;;;;;;;12.17;7.83;;;;;;;;;;6325543;28;20039;-79
2022/06/17 08:42:49;;;;;;;12.05;9.25;;;;;;;;;;6320772;28;20051;-79
2022/06/17 08:45:58;;;;;;;11.68;8.20;;;;;;;;;;6326005;28;20055;-80
2022/06/17 08:49:24;;;;;;;11.18;7.60;;;;;;;;;;6325333;28;20044;-78
2022/06/17 08:52:37;;;;;;;10.65;7.93;;;;;;;;;;6321210;28;20052;-81
2022/06/17 08:55:43;;;;;;;9.70;8.75;;;;;;;;;;6324052;28;20059;-79
2022/06/17 08:58:53;;;;;;;9.70;7.47;;;;;;;;;;6322645;28;20043;-78
2022/06/17 09:01:59;;;;;;;10.77;8.15;;;;;;;;;;6324221;28;20044;-79
2022/06/17 09:05:16;;;;;;;8.82;6.22;;;;;;;;;;6325020;28;20196;-80
2022/06/17 09:08:33;;;;;;;9.23;7.20;;;;;;;;;;6325423;28;20048;-79
2022/06/17 09:11:40;;;;;;;11.15;7.50;;;;;;;;;;6323579;28;20601;-80
2022/06/17 09:14:48;;;;;;;8.00;6.85;;;;;;;;;;6326498;28;20063;-80
2022/06/17 09:17:56;;;;;;;10.63;6.25;;;;;;;;;;6326849;28;20335;-77
2022/06/17 09:21:05;;;;;;;7.65;6.43;;;;;;;;;;6328100;28;20043;-78
2022/06/17 09:24:09;;;;;;;8.07;6.43;;;;;;;;;;6328811;28;20341;-80
2022/06/17 09:27:14;;;;;;;9.98;6.72;;;;;;;;;;6326244;28;20044;-80
2022/06/17 09:30:19;;;;;;;11.10;6.63;;;;;;;;;;6322579;28;20110;-79
2022/06/17 09:33:23;;;;;;;10.43;6.53;;;;;;;;;;6330384;28;22080;-80
2022/06/17 09:36:31;;;;;;;9.52;7.25;;;;;;;;;;6329299;28;20358;-79
2022/06/17 09:39:41;;;;;;;11.20;6.70;;;;;;;;;;6326711;28;20934;-80
2022/06/17 09:42:47;;;;;;;8.00;7.20;;;;;;;;;;6326176;28;20058;-79
2022/06/17 09:45:51;;;;;;;9.35;5.90;;;;;;;;;;6331511;28;20105;-78
2022/06/17 09:48:57;;;;;;;7.28;6.57;;;;;;;;;;6328847;28;20044;-79
2022/06/17 09:52:05;;;;;;;9.60;6.40;;;;;;;;;;6328188;28;20293;-79
2022/06/17 09:55:09;;;;;;;11.18;6.78;;;;;;;;;;6327017;28;20125;-79
2022/06/17 09:58:14;;;;;;;9.43;6.65;;;;;;;;;;6325748;28;20235;-79
2022/06/17 10:01:16;;;;;;;13.13;8.00;;;;;;;;;;6329650;28;20052;-79
2022/06/17 10:04:18;;;;;;;11.15;6.75;;;;;;;;;;6324173;28;20060;-83
2022/06/17 10:07:29;;;;;;;10.15;7.47;;;;;;;;;;6324478;28;20052;-81
2022/06/17 10:10:39;;;;;;;10.02;8.77;;;;;;;;;;6324365;28;20069;-80
2022/06/17 10:13:46;;;;;;;11.55;9.68;;;;;;;;;;6324597;28;20060;-79
2022/06/17 10:20:25;;;;;;;10.00;7.68;;;;;;;;;;6326846;28;20040;-80
2022/06/17 10:23:34;;;;;;;9.70;7.93;;;;;;;;;;6327819;28;20078;-79
2022/06/17 10:26:52;;;;;;;8.75;6.93;;;;;;;;;;6328203;28;20044;-81
2022/06/17 10:30:07;;;;;;;9.23;7.05;;;;;;;;;;6322871;28;20047;-79
2022/06/17 10:33:11;;;;;;;10.27;8.27;;;;;;;;;;6326595;28;20051;-79
2022/06/17 10:36:13;;;;;;;12.13;6.30;;;;;;;;;;6325815;28;20059;-82
2022/06/17 10:39:18;;;;;;;10.07;6.88;;;;;;;;;;6328213;28;20044;-77
2022/06/17 10:42:21;;;;;;;11.70;9.57;;;;;;;;;;6329863;27;20044;-77
2022/06/17 10:45:22;;;;;;;15.75;10.40;;;;;;;;;;6326962;28;20102;-81
2022/06/17 10:48:29;;;;;;;56.80;33.47;;;;;;;;;;6326961;28;20113;-76
2022/06/17 10:51:34;;;;;;;10.48;8.40;;;;;;;;;;6325187;28;20060;-80
2022/06/17 10:54:38;;;;;;;11.93;7.85;;;;;;;;;;6328483;28;20040;-82
2022/06/17 10:57:41;;;;;;;10.60;9.38;;;;;;;;;;6329845;28;20047;-74
2022/06/17 11:00:45;;;;;;;13.13;10.60;;;;;;;;;;6327849;28;20052;-76
2022/06/17 11:03:48;;;;;;;12.18;10.57;;;;;;;;;;6325587;28;20090;-77
2022/06/17 11:06:53;;;;;;;12.88;7.93;;;;;;;;;;6326536;28;20048;-74
2022/06/17 11:09:58;;;;;;;14.02;9.75;;;;;;;;;;6324971;28;20093;-75
2022/06/17 11:13:02;;;;;;;31.52;22.88;;;;;;;;;;6329081;28;20047;-74
2022/06/17 11:16:04;;;;;;;10.45;9.45;;;;;;;;;;6326991;28;20044;-76
2022/06/17 11:19:11;;;;;;;8.68;7.40;;;;;;;;;;6324673;28;20635;-81
2022/06/17 11:22:20;;;;;;;14.45;9.00;;;;;;;;;;6326011;28;20373;-78
2022/06/17 11:25:28;;;;;;;13.13;11.63;;;;;;;;;;6327109;28;20056;-78
2022/06/17 11:28:36;;;;;;;13.43;10.10;;;;;;;;;;6322659;28;20331;-80
2022/06/17 11:31:41;;;;;;;16.85;11.85;;;;;;;;;;6321905;28;20048;-77
2022/06/17 11:34:50;;;;;;;14.57;13.07;;;;;;;;;;6323507;28;20238;-78
2022/06/17 11:37:53;;;;;;;15.32;12.63;;;;;;;;;;6326851;28;20056;-86
2022/06/17 11:40:56;;;;;;;12.15;10.85;;;;;;;;;;6325284;28;20319;-77
2022/06/17 11:44:09;;;;;;;13.27;8.68;;;;;;;;;;6321504;28;20362;-83
2022/06/17 11:47:11;;;;;;;14.30;9.05;;;;;;;;;;6323019;28;20055;-83
2022/06/17 11:50:15;;;;;;;9.57;8.57;;;;;;;;;;6322238;28;20052;-77
2022/06/17 11:53:18;;;;;;;10.90;9.30;;;;;;;;;;6319265;28;20090;-76
2022/06/17 11:56:36;;;;;;;12.30;10.90;;;;;;;;;;6322731;28;20054;-77
2022/06/17 11:59:41;;;;;;;11.25;10.10;;;;;;;;;;6325077;28;20105;-77
2022/06/17 12:02:53;;;;;;;12.75;11.38;;;;;;;;;;6321674;28;20059;-76
2022/06/17 12:05:57;;;;;;;9.98;8.98;;;;;;;;;;6320150;28;20118;-78
2022/06/17 12:09:05;;;;;;;15.50;9.73;;;;;;;;;;6322597;28;20059;-77
2022/06/17 12:12:13;;;;;;;11.13;8.52;;;;;;;;;;6320886;28;20094;-77
2022/06/17 12:15:26;;;;;;;12.40;9.45;;;;;;;;;;6322748;28;20043;-75
2022/06/17 12:18:30;;;;;;;11.32;10.18;;;;;;;;;;6318944;28;20357;-75
2022/06/17 12:21:46;;;;;;;12.18;9.93;;;;;;;;;;6322905;28;20235;-75
2022/06/17 12:24:53;;;;;;;12.45;10.02;;;;;;;;;;6324740;28;20104;-75
2022/06/17 12:28:01;;;;;;;13.57;9.68;;;;;;;;;;6322638;28;20099;-77
2022/06/17 12:31:07;;;;;;;16.10;8.15;;;;;;;;;;6323483;28;20059;-76
2022/06/17 12:34:17;;;;;;;10.52;8.70;;;;;;;;;;6323327;28;20055;-76
2022/06/17 12:37:30;;;;;;;8.45;7.68;;;;;;;;;;6317465;28;20039;-76
2022/06/17 12:40:37;;;;;;;11.05;9.27;;;;;;;;;;6320420;28;20059;-76
2022/06/17 12:43:44;;;;;;;11.15;7.38;;;;;;;;;;6318527;28;20402;-76
2022/06/17 12:46:50;;;;;;;12.10;7.55;;;;;;;;;;6318674;28;20052;-76
2022/06/17 12:53:27;;;;;;;10.68;6.35;;;;;;;;;;6317475;28;20056;-76
2022/06/17 12:56:37;;;;;;;8.73;6.00;;;;;;;;;;6318559;28;20053;-76
2022/06/17 12:59:45;;;;;;;9.48;7.57;;;;;;;;;;6319785;28;20063;-76
2022/06/17 13:03:01;;;;;;;12.40;7.63;;;;;;;;;;6322088;28;20048;-75
2022/06/17 13:06:11;;;;;;;8.40;7.38;;;;;;;;;;6321185;28;20120;-75
2022/06/17 13:09:18;;;;;;;9.65;7.88;;;;;;;;;;6319394;28;20051;-75
2022/06/17 13:12:25;;;;;;;8.45;6.75;;;;;;;;;;6316185;28;20050;-76
2022/06/17 13:15:29;;;;;;;9.13;7.80;;;;;;;;;;6323307;28;20130;-76
2022/06/17 13:18:36;;;;;;;7.25;6.55;;;;;;;;;;6320402;28;20055;-76
2022/06/17 13:21:43;;;;;;;9.77;7.47;;;;;;;;;;6320251;28;20044;-76
2022/06/17 13:24:52;;;;;;;10.25;7.45;;;;;;;;;;6321486;28;20051;-76
2022/06/17 13:27:58;;;;;;;8.18;6.70;;;;;;;;;;6319240;28;20048;-75
2022/06/17 13:31:04;;;;;;;9.45;6.93;;;;;;;;;;6324818;28;20041;-72
2022/06/17 13:34:10;;;;;;;10.38;7.10;;;;;;;;;;6320677;28;20115;-71
2022/06/17 13:37:14;;;;;;;6.70;6.10;;;;;;;;;;6320492;28;20044;-72
2022/06/17 13:40:20;;;;;;;8.93;6.45;;;;;;;;;;6300731;28;20070;-73
2022/06/17 13:43:24;;;;;;;8.10;7.20;;;;;;;;;;6313364;28;20300;-73
2022/06/17 13:46:32;;;;;;;8.02;6.38;;;;;;;;;;6318180;28;20358;-74
2022/06/17 13:49:40;;;;;;;9.13;6.60;;;;;;;;;;6319857;28;20048;-76
2022/06/17 13:52:46;;;;;;;9.85;7.00;;;;;;;;;;6313811;28;20104;-76
2022/06/17 13:55:53;;;;;;;8.60;7.13;;;;;;;;;;6315400;28;20056;-74
2022/06/17 13:58:57;;;;;;;10.57;6.88;;;;;;;;;;6315411;28;20071;-73
2022/06/17 14:02:22;;;;;;;9.23;7.35;;;;;;;;;;6318245;28;20814;-73
2022/06/17 14:05:28;;;;;;;9.70;6.70;;;;;;;;;;6311659;28;20044;-76
2022/06/17 14:08:48;;;;;;;7.97;6.03;;;;;;;;;;6324834;28;20271;-75
2022/06/17 14:11:50;;;;;;;8.60;6.10;;;;;;;;;;6321471;28;20059;-76
2022/06/17 14:14:52;;;;;;;9.68;7.10;;;;;;;;;;6322044;28;20051;-75
2022/06/17 14:17:57;;;;;;;10.43;6.57;;;;;;;;;;6320090;28;20052;-76
2022/06/17 14:21:04;;;;;;;7.28;6.20;;;;;;;;;;6319320;28;20055;-76
2022/06/17 14:24:06;;;;;;;14.05;6.25;;;;;;;;;;6320871;28;20043;-75
2022/06/17 14:27:10;;;;;;;8.30;5.88;;;;;;;;;;6314957;28;20050;-76
2022/06/17 14:30:45;;;;;;;8.48;7.15;;;;;;;;;;6319106;28;20059;-74
2022/06/17 14:34:07;;;;;;;13.65;6.72;;;;;;;;;;6317051;28;20521;-74
2022/06/17 14:37:11;;;;;;;12.10;6.55;;;;;;;;;;6315687;28;20059;-76
2022/06/17 14:40:18;;;;;;;8.40;6.95;;;;;;;;;;6322844;28;20112;-74
2022/06/17 14:43:20;;;;;;;7.43;6.38;;;;;;;;;;6321162;28;20047;-76
2022/06/17 14:46:23;;;;;;;9.52;6.65;;;;;;;;;;6324951;28;20048;-76
2022/06/17 14:49:42;;;;;;;;;;;;;;;;;;6312167;28;20051;-74
2022/06/17 14:52:46;;;;;;;9.57;6.47;;;;;;;;;;6320438;28;20133;-77
2022/06/17 14:56:02;;;;;;;11.95;7.45;;;;;;;;;;6321404;28;20377;-76
2022/06/17 14:59:16;;;;;;;9.73;6.47;;;;;;;;;;6323425;28;20047;-77
2022/06/17 15:02:28;;;;;;;10.65;6.93;;;;;;;;;;6319959;28;20096;-75
2022/06/17 15:05:35;;;;;;;14.02;6.65;;;;;;;;;;6325762;28;20051;-78
2022/06/17 15:08:39;;;;;;;7.35;5.88;;;;;;;;;;6315715;28;20096;-76
2022/06/17 15:11:42;;;;;;;12.93;7.35;;;;;;;;;;6315356;28;20060;-75
2022/06/17 15:14:47;;;;;;;9.73;6.55;;;;;;;;;;6320976;28;20108;-76
2022/06/17 15:17:53;;;;;;;8.27;6.40;;;;;;;;;;6319930;28;20044;-76
2022/06/17 15:21:00;;;;;;;9.63;6.90;;;;;;;;;;6323022;28;20048;-76
2022/06/17 15:24:12;;;;;;;8.45;6.60;;;;;;;;;;6321132;28;20404;-76
2022/06/17 15:27:25;;;;;;;10.50;7.88;;;;;;;;;;6321953;28;20353;-75
2022/06/17 15:30:32;;;;;;;9.93;6.80;;;;;;;;;;6322979;28;20354;-76
2022/06/17 15:33:35;;;;;;;9.15;6.50;;;;;;;;;;6324060;28;20049;-77
2022/06/17 15:36:46;;;;;;;15.90;7.22;;;;;;;;;;6325493;28;20131;-77
2022/06/17 15:39:49;;;;;;;7.80;6.35;;;;;;;;;;6321182;28;20062;-74
2022/06/17 15:42:57;;;;;;;17.30;7.93;;;;;;;;;;6323610;28;20083;-77
2022/06/17 15:46:15;;;;;;;9.32;6.80;;;;;;;;;;6324090;28;20082;-76
2022/06/17 15:49:21;;;;;;;8.45;6.57;;;;;;;;;;6319853;28;20093;-77
2022/06/17 15:52:26;;;;;;;9.25;6.80;;;;;;;;;;6302870;28;20051;-77
2022/06/17 15:55:34;;;;;;;8.75;6.90;;;;;;;;;;6323155;28;20333;-75
2022/06/17 15:58:37;;;;;;;7.60;6.68;;;;;;;;;;6324588;28;20059;-76
2022/06/17 16:01:44;;;;;;;8.15;7.10;;;;;;;;;;6317473;28;20067;-75
2022/06/17 16:04:46;;;;;;;10.55;6.90;;;;;;;;;;6323290;28;20058;-76
2022/06/17 16:07:53;;;;;;;6.90;6.15;;;;;;;;;;6319173;28;20052;-77
2022/06/17 16:11:07;;;;;;;6.97;6.22;;;;;;;;;;6316511;28;20048;-76
2022/06/17 16:14:26;;;;;;;6.88;5.95;;;;;;;;;;6308505;28;21483;-76
2022/06/17 16:17:30;;;;;;;12.05;9.65;;;;;;;;;;6316418;28;20047;-79
2022/06/17 16:20:38;;;;;;;11.77;7.35;;;;;;;;;;6311909;28;20332;-79
2022/06/17 16:23:41;;;;;;;241.07;172.07;;;;;;;;;;6310346;28;20327;-80
2022/06/17 16:26:45;;;;;;;20.38;12.30;;;;;;;;;;6316596;28;20058;-80
2022/06/17 16:29:54;;;;;;;9.88;8.48;;;;;;;;;;6318149;28;20122;-77
2022/06/17 16:33:01;;;;;;;43.33;28.83;;;;;;;;;;6320877;27;20039;-77
2022/06/17 16:36:05;;;;;;;12.98;6.90;;;;;;;;;;6318022;28;20044;-76
2022/06/17 16:39:28;;;;;;;12.32;6.50;;;;;;;;;;6320442;28;20086;-79
2022/06/17 16:46:06;;;;;;;8.90;6.47;;;;;;;;;;6208811;28;20284;-79
2022/06/17 16:49:08;;;;;;;6.35;5.75;;;;;;;;;;6219271;28;20234;-77
2022/06/17 16:52:13;;;;;;;8.47;6.30;;;;;;;;;;6215815;28;20344;-78
2022/06/17 16:55:21;;;;;;;21.92;6.55;;;;;;;;;;6221541;28;20050;-78
2022/06/17 16:58:23;;;;;;;8.45;6.30;;;;;;;;;;6214829;28;20269;-78
2022/06/17 17:01:26;;;;;;;9.05;5.85;;;;;;;;;;6210563;28;20053;-77
2022/06/17 17:04:28;;;;;;;7.05;6.32;;;;;;;;;;6202302;28;20062;-78
2022/06/17 17:07:29;;;;;;;8.90;5.73;;;;;;;;;;6217205;28;20053;-80
2022/06/17 17:10:32;;;;;;;6.30;5.33;;;;;;;;;;6210129;28;20057;-78
2022/06/17 17:13:34;;;;;;;6.97;5.78;;;;;;;;;;6203831;28;20116;-78
2022/06/17 17:16:36;;;;;;;12.23;5.32;;;;;;;;;;6211960;28;20329;-78
2022/06/17 17:19:38;;;;;;;9.07;6.37;;;;;;;;;;6213854;28;20101;-77
2022/06/17 17:22:40;;;;;;;9.32;7.20;;;;;;;;;;6314227;28;20452;-77
2022/06/17 17:25:44;;;;;;;8.07;6.37;;;;;;;;;;6314574;28;20044;-77
2022/06/17 17:28:46;;;;;;;14.27;9.68;;;;;;;;;;6313556;28;20445;-77
2022/06/17 17:31:48;;;;;;;6.93;5.43;;;;;;;;;;6319164;28;20052;-77
2022/06/17 17:34:50;;;;;;;6.60;6.00;;;;;;;;;;6320258;28;20223;-77
2022/06/17 17:37:51;;;;;;;11.10;5.97;;;;;;;;;;6314137;28;20063;-77
2022/06/17 17:41:23;;;;;;;9.37;6.00;;;;;;;;;;6320051;28;20089;-76
2022/06/17 17:44:20;;;;;;;10.57;5.90;;;;;;;;;;6312384;28;20051;-77
2022/06/17 17:47:25;;;;;;;8.82;6.03;;;;;;;;;;6322287;28;20048;-77
2022/06/17 17:50:30;;;;;;;6.38;5.65;;;;;;;;;;6321360;28;20353;-76
2022/06/17 17:53:32;;;;;;;13.07;6.53;;;;;;;;;;6318854;28;20044;-76
2022/06/17 17:56:36;;;;;;;12.48;6.07;;;;;;;;;;6312798;28;20048;-77
2022/06/17 17:59:38;;;;;;;8.75;6.47;;;;;;;;;;6317926;28;20047;-76
2022/06/17 18:02:40;;;;;;;7.10;5.65;;;;;;;;;;6318166;28;20056;-76
2022/06/17 18:05:42;;;;;;;72.78;56.95;;;;;;;;;;6319086;28;20060;-76
2022/06/17 18:08:45;;;;;;;13.48;8.82;;;;;;;;;;6324086;28;20335;-75
2022/06/17 18:11:49;;;;;;;11.30;8.27;;;;;;;;;;6329964;28;20069;-76
2022/06/17 18:14:51;;;;;;;9.18;5.75;;;;;;;;;;6329203;28;20040;-78
2022/06/17 18:17:55;;;;;;;9.40;5.50;;;;;;;;;;6323467;28;20047;-78
2022/06/17 18:20:56;;;;;;;8.57;5.72;;;;;;;;;;6322210;28;20093;-80
2022/06/17 18:23:59;;;;;;;7.63;6.20;;;;;;;;;;6323372;28;20094;-79
2022/06/17 18:27:03;;;;;;;;;;;;;;;;;;6321567;28;20039;-79
2022/06/17 18:30:06;;;;;;;7.80;6.55;;;;;;;;;;6327931;28;20350;-77
2022/06/17 18:33:11;;;;;;;17.20;8.60;;;;;;;;;;6325689;28;20231;-82
2022/06/17 18:36:14;;;;;;;6.65;5.47;;;;;;;;;;6325798;28;20047;-78